Kezdőlap
METAR-TAF:

METAR-TAF

Repülőterek :

Mitiga International Airport

Tripoli, Líbia

földrajzi szélesség: 32-54N, földrajzi hosszúság: 13-17E, magasság: 11 m

METAR: hiányzik

Idő: 05:50 (03:50 UTC)

Előrejelzés

A jelentés 10 órával és 50 perccel ezelõtt készült, 17:00 UTC
Az előrejelzés 09-én 18 óra UTC és 10-én 18 óra UTC között érvényes
Nyugat-északnyugati szél 10 kt
Látótávolság: 8000 m
Szórványos felhőzet 2500 lábon
Szórványos felhőzet 7000 lábon
10 és 00 óra UTC között fokozatosan kialakuló
Nyugat-délnyugati szél 12 kt

TAF: HLLM 091700Z 0918/1018 30010KT 8000 SCT025 SCT070 BECMG 1000 /1002 24012KT

Meteorológiai megfigyelések és előrejelzések több, mint 4000 repülőtéren (METAR és TAF jelentéseket).

A térképen piros és sárga pontok jelzik az elérhető meteorológiai állomásokat.

Mozgassa az egeret a pont fölött, hogy megjelenjen az állomás neve.

Azután kattintson az időjárási megfigyelések és előrejelzések megtekintéséhez.

A térkép megváltoztatása: kattintson a fekete keresztel jelölt zöld gombra ráközelítéshez, a vonallal jelölt zöld gombra távolításhoz, vagy a zöld nyilakra a szomszédos térképek eléréséhez.


METAR-TAF: